sensor_id;sensor_type;location;lat;lon;timestamp;P1;durP1;ratioP1;P2;durP2;ratioP2
39924;SDS011;25592;49.986;11.618;2023-06-14T00:01:44;9.80;;;3.13;;
39924;SDS011;25592;49.986;11.618;2023-06-14T00:04:33;6.30;;;3.15;;
39924;SDS011;25592;49.986;11.618;2023-06-14T00:07:22;4.88;;;2.83;;
39924;SDS011;25592;49.986;11.618;2023-06-14T00:10:23;5.03;;;3.10;;
39924;SDS011;25592;49.986;11.618;2023-06-14T00:13:09;7.15;;;2.80;;
39924;SDS011;25592;49.986;11.618;2023-06-14T00:15:54;7.72;;;3.60;;
39924;SDS011;25592;49.986;11.618;2023-06-14T00:18:40;7.25;;;3.10;;
39924;SDS011;25592;49.986;11.618;2023-06-14T00:21:26;7.82;;;2.83;;
39924;SDS011;25592;49.986;11.618;2023-06-14T00:24:13;6.85;;;3.13;;
39924;SDS011;25592;49.986;11.618;2023-06-14T00:26:58;6.47;;;3.33;;
39924;SDS011;25592;49.986;11.618;2023-06-14T00:29:43;10.00;;;3.10;;
39924;SDS011;25592;49.986;11.618;2023-06-14T00:32:29;7.25;;;3.13;;
39924;SDS011;25592;49.986;11.618;2023-06-14T00:35:14;7.75;;;3.08;;
39924;SDS011;25592;49.986;11.618;2023-06-14T00:38:00;12.57;;;3.75;;
39924;SDS011;25592;49.986;11.618;2023-06-14T00:40:46;4.55;;;2.92;;
39924;SDS011;25592;49.986;11.618;2023-06-14T00:43:32;5.53;;;3.25;;
39924;SDS011;25592;49.986;11.618;2023-06-14T00:46:19;5.65;;;3.40;;
39924;SDS011;25592;49.986;11.618;2023-06-14T00:49:07;5.40;;;3.20;;
39924;SDS011;25592;49.986;11.618;2023-06-14T00:51:53;5.88;;;3.33;;
39924;SDS011;25592;49.986;11.618;2023-06-14T00:54:39;6.05;;;2.70;;
39924;SDS011;25592;49.986;11.618;2023-06-14T00:57:26;5.30;;;3.03;;
39924;SDS011;25592;49.986;11.618;2023-06-14T01:00:12;8.52;;;3.85;;
39924;SDS011;25592;49.986;11.618;2023-06-14T01:02:58;9.70;;;3.50;;
39924;SDS011;25592;49.986;11.618;2023-06-14T01:05:44;7.60;;;3.70;;
39924;SDS011;25592;49.986;11.618;2023-06-14T01:12:14;6.93;;;3.45;;
39924;SDS011;25592;49.986;11.618;2023-06-14T01:15:03;5.45;;;3.38;;
39924;SDS011;25592;49.986;11.618;2023-06-14T01:17:49;7.93;;;3.25;;
39924;SDS011;25592;49.986;11.618;2023-06-14T01:20:36;7.55;;;3.30;;
39924;SDS011;25592;49.986;11.618;2023-06-14T01:23:23;7.47;;;3.75;;
39924;SDS011;25592;49.986;11.618;2023-06-14T01:26:08;7.15;;;3.45;;
39924;SDS011;25592;49.986;11.618;2023-06-14T01:28:54;7.63;;;4.13;;
39924;SDS011;25592;49.986;11.618;2023-06-14T01:31:43;5.78;;;3.40;;
39924;SDS011;25592;49.986;11.618;2023-06-14T01:34:29;5.90;;;3.75;;
39924;SDS011;25592;49.986;11.618;2023-06-14T01:37:15;6.97;;;3.63;;
39924;SDS011;25592;49.986;11.618;2023-06-14T01:40:01;7.95;;;3.92;;
39924;SDS011;25592;49.986;11.618;2023-06-14T01:42:51;5.50;;;3.85;;
39924;SDS011;25592;49.986;11.618;2023-06-14T01:45:37;6.90;;;3.80;;
39924;SDS011;25592;49.986;11.618;2023-06-14T01:48:23;5.18;;;3.83;;
39924;SDS011;25592;49.986;11.618;2023-06-14T01:51:08;6.10;;;3.78;;
39924;SDS011;25592;49.986;11.618;2023-06-14T01:53:54;6.60;;;3.58;;
39924;SDS011;25592;49.986;11.618;2023-06-14T01:56:40;6.80;;;3.85;;
39924;SDS011;25592;49.986;11.618;2023-06-14T01:59:25;6.78;;;4.35;;
39924;SDS011;25592;49.986;11.618;2023-06-14T02:02:10;5.57;;;3.50;;
39924;SDS011;25592;49.986;11.618;2023-06-14T02:04:56;5.47;;;3.65;;
39924;SDS011;25592;49.986;11.618;2023-06-14T02:07:42;6.70;;;3.72;;
39924;SDS011;25592;49.986;11.618;2023-06-14T02:10:27;5.97;;;3.55;;
39924;SDS011;25592;49.986;11.618;2023-06-14T02:13:13;4.90;;;3.40;;
39924;SDS011;25592;49.986;11.618;2023-06-14T02:15:58;7.40;;;3.55;;
39924;SDS011;25592;49.986;11.618;2023-06-14T02:18:44;7.05;;;3.50;;
39924;SDS011;25592;49.986;11.618;2023-06-14T02:21:30;7.93;;;4.53;;
39924;SDS011;25592;49.986;11.618;2023-06-14T02:24:15;8.65;;;3.83;;
39924;SDS011;25592;49.986;11.618;2023-06-14T02:27:01;6.65;;;3.72;;
39924;SDS011;25592;49.986;11.618;2023-06-14T02:29:47;8.75;;;3.97;;
39924;SDS011;25592;49.986;11.618;2023-06-14T02:32:32;7.03;;;3.67;;
39924;SDS011;25592;49.986;11.618;2023-06-14T02:35:20;6.93;;;3.97;;
39924;SDS011;25592;49.986;11.618;2023-06-14T02:38:09;5.80;;;3.67;;
39924;SDS011;25592;49.986;11.618;2023-06-14T02:40:54;7.50;;;4.00;;
39924;SDS011;25592;49.986;11.618;2023-06-14T02:43:40;5.53;;;3.72;;
39924;SDS011;25592;49.986;11.618;2023-06-14T02:46:25;7.15;;;3.65;;
39924;SDS011;25592;49.986;11.618;2023-06-14T02:49:11;6.45;;;3.83;;
39924;SDS011;25592;49.986;11.618;2023-06-14T02:51:56;7.32;;;4.35;;
39924;SDS011;25592;49.986;11.618;2023-06-14T02:54:42;7.28;;;3.90;;
39924;SDS011;25592;49.986;11.618;2023-06-14T02:57:27;10.20;;;4.63;;
39924;SDS011;25592;49.986;11.618;2023-06-14T03:00:12;6.97;;;4.45;;
39924;SDS011;25592;49.986;11.618;2023-06-14T03:02:59;7.82;;;3.75;;
39924;SDS011;25592;49.986;11.618;2023-06-14T03:05:47;6.93;;;3.90;;
39924;SDS011;25592;49.986;11.618;2023-06-14T03:08:34;6.68;;;4.25;;
39924;SDS011;25592;49.986;11.618;2023-06-14T03:11:23;8.73;;;4.10;;
39924;SDS011;25592;49.986;11.618;2023-06-14T03:14:08;6.85;;;4.43;;
39924;SDS011;25592;49.986;11.618;2023-06-14T03:16:56;11.18;;;4.53;;
39924;SDS011;25592;49.986;11.618;2023-06-14T03:19:41;9.82;;;4.18;;
39924;SDS011;25592;49.986;11.618;2023-06-14T03:22:27;6.88;;;3.88;;
39924;SDS011;25592;49.986;11.618;2023-06-14T03:25:13;8.55;;;4.28;;
39924;SDS011;25592;49.986;11.618;2023-06-14T03:28:00;9.00;;;4.45;;
39924;SDS011;25592;49.986;11.618;2023-06-14T03:30:45;9.77;;;4.15;;
39924;SDS011;25592;49.986;11.618;2023-06-14T03:33:30;7.85;;;4.38;;
39924;SDS011;25592;49.986;11.618;2023-06-14T03:36:16;10.38;;;5.47;;
39924;SDS011;25592;49.986;11.618;2023-06-14T03:39:02;9.13;;;4.25;;
39924;SDS011;25592;49.986;11.618;2023-06-14T03:41:48;6.53;;;4.32;;
39924;SDS011;25592;49.986;11.618;2023-06-14T03:44:33;6.25;;;4.30;;
39924;SDS011;25592;49.986;11.618;2023-06-14T03:47:19;7.03;;;4.25;;
39924;SDS011;25592;49.986;11.618;2023-06-14T03:50:05;8.15;;;5.00;;
39924;SDS011;25592;49.986;11.618;2023-06-14T03:52:50;10.55;;;4.30;;
39924;SDS011;25592;49.986;11.618;2023-06-14T03:55:35;11.38;;;4.05;;
39924;SDS011;25592;49.986;11.618;2023-06-14T03:58:41;7.88;;;4.47;;
39924;SDS011;25592;49.986;11.618;2023-06-14T04:01:26;7.18;;;4.82;;
39924;SDS011;25592;49.986;11.618;2023-06-14T04:04:14;6.93;;;4.03;;
39924;SDS011;25592;49.986;11.618;2023-06-14T04:07:03;6.90;;;4.07;;
39924;SDS011;25592;49.986;11.618;2023-06-14T04:09:49;7.40;;;4.10;;
39924;SDS011;25592;49.986;11.618;2023-06-14T04:12:34;9.25;;;4.53;;
39924;SDS011;25592;49.986;11.618;2023-06-14T04:15:20;7.05;;;4.32;;
39924;SDS011;25592;49.986;11.618;2023-06-14T04:18:06;5.78;;;3.97;;
39924;SDS011;25592;49.986;11.618;2023-06-14T04:20:52;6.47;;;4.05;;
39924;SDS011;25592;49.986;11.618;2023-06-14T04:23:38;8.40;;;4.10;;
39924;SDS011;25592;49.986;11.618;2023-06-14T04:26:23;6.30;;;4.50;;
39924;SDS011;25592;49.986;11.618;2023-06-14T04:29:14;8.50;;;5.03;;
39924;SDS011;25592;49.986;11.618;2023-06-14T04:32:01;7.15;;;4.50;;
39924;SDS011;25592;49.986;11.618;2023-06-14T04:34:47;10.32;;;4.70;;
39924;SDS011;25592;49.986;11.618;2023-06-14T04:37:33;10.50;;;5.00;;
39924;SDS011;25592;49.986;11.618;2023-06-14T04:40:19;6.65;;;5.00;;
39924;SDS011;25592;49.986;11.618;2023-06-14T04:43:04;11.85;;;4.85;;
39924;SDS011;25592;49.986;11.618;2023-06-14T04:45:51;6.93;;;4.85;;
39924;SDS011;25592;49.986;11.618;2023-06-14T04:48:39;7.70;;;4.57;;
39924;SDS011;25592;49.986;11.618;2023-06-14T04:51:25;7.20;;;4.40;;
39924;SDS011;25592;49.986;11.618;2023-06-14T04:54:14;7.80;;;4.93;;
39924;SDS011;25592;49.986;11.618;2023-06-14T04:56:59;6.00;;;4.18;;
39924;SDS011;25592;49.986;11.618;2023-06-14T04:59:45;5.03;;;3.17;;
39924;SDS011;25592;49.986;11.618;2023-06-14T05:02:30;9.75;;;4.97;;
39924;SDS011;25592;49.986;11.618;2023-06-14T05:05:16;5.82;;;4.10;;
39924;SDS011;25592;49.986;11.618;2023-06-14T05:08:02;6.75;;;3.80;;
39924;SDS011;25592;49.986;11.618;2023-06-14T05:10:48;7.03;;;3.97;;
39924;SDS011;25592;49.986;11.618;2023-06-14T05:13:33;8.18;;;4.05;;
39924;SDS011;25592;49.986;11.618;2023-06-14T05:16:19;9.40;;;4.40;;
39924;SDS011;25592;49.986;11.618;2023-06-14T05:19:08;7.53;;;3.53;;
39924;SDS011;25592;49.986;11.618;2023-06-14T05:21:55;12.05;;;4.40;;
39924;SDS011;25592;49.986;11.618;2023-06-14T05:24:40;8.75;;;4.53;;
39924;SDS011;25592;49.986;11.618;2023-06-14T05:27:27;6.10;;;3.85;;
39924;SDS011;25592;49.986;11.618;2023-06-14T05:30:13;7.40;;;4.60;;
39924;SDS011;25592;49.986;11.618;2023-06-14T05:32:59;8.70;;;4.28;;
39924;SDS011;25592;49.986;11.618;2023-06-14T05:35:45;7.18;;;4.72;;
39924;SDS011;25592;49.986;11.618;2023-06-14T05:38:31;9.82;;;4.95;;
39924;SDS011;25592;49.986;11.618;2023-06-14T05:41:17;6.57;;;4.07;;
39924;SDS011;25592;49.986;11.618;2023-06-14T05:44:02;7.53;;;4.53;;
39924;SDS011;25592;49.986;11.618;2023-06-14T05:46:48;8.07;;;4.75;;
39924;SDS011;25592;49.986;11.618;2023-06-14T05:49:33;8.40;;;4.97;;
39924;SDS011;25592;49.986;11.618;2023-06-14T05:52:19;7.22;;;3.75;;
39924;SDS011;25592;49.986;11.618;2023-06-14T05:55:04;7.40;;;4.18;;
39924;SDS011;25592;49.986;11.618;2023-06-14T05:57:50;8.23;;;4.78;;
39924;SDS011;25592;49.986;11.618;2023-06-14T06:00:37;10.70;;;4.38;;
39924;SDS011;25592;49.986;11.618;2023-06-14T06:03:22;7.03;;;3.90;;
39924;SDS011;25592;49.986;11.618;2023-06-14T06:06:08;9.15;;;4.70;;
39924;SDS011;25592;49.986;11.618;2023-06-14T06:08:53;9.30;;;4.20;;
39924;SDS011;25592;49.986;11.618;2023-06-14T06:11:39;9.02;;;4.20;;
39924;SDS011;25592;49.986;11.618;2023-06-14T06:17:47;11.63;;;3.60;;
39924;SDS011;25592;49.986;11.618;2023-06-14T06:20:40;10.95;;;4.03;;
39924;SDS011;25592;49.986;11.618;2023-06-14T06:23:26;7.78;;;4.22;;
39924;SDS011;25592;49.986;11.618;2023-06-14T06:26:11;9.02;;;4.32;;
39924;SDS011;25592;49.986;11.618;2023-06-14T06:28:56;11.95;;;4.20;;
39924;SDS011;25592;49.986;11.618;2023-06-14T06:31:42;6.95;;;4.10;;
39924;SDS011;25592;49.986;11.618;2023-06-14T06:34:28;7.68;;;4.28;;
39924;SDS011;25592;49.986;11.618;2023-06-14T06:37:13;6.20;;;3.60;;
39924;SDS011;25592;49.986;11.618;2023-06-14T06:39:59;7.50;;;3.63;;
39924;SDS011;25592;49.986;11.618;2023-06-14T06:42:44;7.38;;;3.22;;
39924;SDS011;25592;49.986;11.618;2023-06-14T06:45:30;7.50;;;3.50;;
39924;SDS011;25592;49.986;11.618;2023-06-14T06:48:15;8.25;;;3.15;;
39924;SDS011;25592;49.986;11.618;2023-06-14T06:51:01;9.73;;;3.53;;
39924;SDS011;25592;49.986;11.618;2023-06-14T06:53:51;8.93;;;3.30;;
39924;SDS011;25592;49.986;11.618;2023-06-14T06:56:40;9.45;;;3.97;;
39924;SDS011;25592;49.986;11.618;2023-06-14T06:59:26;9.90;;;3.97;;
39924;SDS011;25592;49.986;11.618;2023-06-14T07:02:11;9.85;;;4.10;;
39924;SDS011;25592;49.986;11.618;2023-06-14T07:04:57;7.97;;;3.90;;
39924;SDS011;25592;49.986;11.618;2023-06-14T07:07:42;7.63;;;3.10;;
39924;SDS011;25592;49.986;11.618;2023-06-14T07:10:27;7.55;;;3.22;;
39924;SDS011;25592;49.986;11.618;2023-06-14T07:13:13;6.38;;;3.20;;
39924;SDS011;25592;49.986;11.618;2023-06-14T07:15:59;11.15;;;3.72;;
39924;SDS011;25592;49.986;11.618;2023-06-14T07:18:45;7.50;;;2.95;;
39924;SDS011;25592;49.986;11.618;2023-06-14T07:21:31;5.60;;;2.97;;
39924;SDS011;25592;49.986;11.618;2023-06-14T07:24:16;4.03;;;2.60;;
39924;SDS011;25592;49.986;11.618;2023-06-14T07:27:02;6.85;;;3.25;;
39924;SDS011;25592;49.986;11.618;2023-06-14T07:29:48;6.05;;;2.45;;
39924;SDS011;25592;49.986;11.618;2023-06-14T07:32:34;4.55;;;2.83;;
39924;SDS011;25592;49.986;11.618;2023-06-14T07:35:20;4.18;;;2.60;;
39924;SDS011;25592;49.986;11.618;2023-06-14T07:38:05;5.95;;;2.28;;
39924;SDS011;25592;49.986;11.618;2023-06-14T07:40:50;4.45;;;2.10;;
39924;SDS011;25592;49.986;11.618;2023-06-14T07:43:36;3.00;;;1.88;;
39924;SDS011;25592;49.986;11.618;2023-06-14T07:46:21;3.53;;;2.20;;
39924;SDS011;25592;49.986;11.618;2023-06-14T07:49:07;3.92;;;2.20;;
39924;SDS011;25592;49.986;11.618;2023-06-14T07:51:52;3.42;;;1.95;;
39924;SDS011;25592;49.986;11.618;2023-06-14T07:54:38;4.43;;;1.98;;
39924;SDS011;25592;49.986;11.618;2023-06-14T07:57:23;3.75;;;2.00;;
39924;SDS011;25592;49.986;11.618;2023-06-14T08:00:09;3.38;;;2.05;;
39924;SDS011;25592;49.986;11.618;2023-06-14T08:02:59;3.85;;;2.00;;
39924;SDS011;25592;49.986;11.618;2023-06-14T08:05:46;4.35;;;2.13;;
39924;SDS011;25592;49.986;11.618;2023-06-14T08:08:31;3.92;;;1.88;;
39924;SDS011;25592;49.986;11.618;2023-06-14T08:11:17;3.42;;;1.83;;
39924;SDS011;25592;49.986;11.618;2023-06-14T08:14:02;3.25;;;1.67;;
39924;SDS011;25592;49.986;11.618;2023-06-14T08:16:47;9.73;;;2.35;;
39924;SDS011;25592;49.986;11.618;2023-06-14T08:19:33;4.05;;;2.10;;
39924;SDS011;25592;49.986;11.618;2023-06-14T08:22:18;4.20;;;1.90;;
39924;SDS011;25592;49.986;11.618;2023-06-14T08:25:04;5.18;;;2.13;;
39924;SDS011;25592;49.986;11.618;2023-06-14T08:27:49;4.70;;;2.03;;
39924;SDS011;25592;49.986;11.618;2023-06-14T08:30:35;3.83;;;1.60;;
39924;SDS011;25592;49.986;11.618;2023-06-14T08:33:20;4.78;;;2.10;;
39924;SDS011;25592;49.986;11.618;2023-06-14T08:36:06;3.53;;;1.77;;
39924;SDS011;25592;49.986;11.618;2023-06-14T08:38:51;10.32;;;1.77;;
39924;SDS011;25592;49.986;11.618;2023-06-14T08:41:36;3.00;;;1.90;;
39924;SDS011;25592;49.986;11.618;2023-06-14T08:44:22;2.97;;;1.73;;
39924;SDS011;25592;49.986;11.618;2023-06-14T08:47:07;3.15;;;1.58;;
39924;SDS011;25592;49.986;11.618;2023-06-14T08:49:55;3.92;;;1.95;;
39924;SDS011;25592;49.986;11.618;2023-06-14T08:52:42;4.90;;;2.03;;
39924;SDS011;25592;49.986;11.618;2023-06-14T08:55:35;5.93;;;1.88;;
39924;SDS011;25592;49.986;11.618;2023-06-14T08:58:30;5.93;;;1.83;;
39924;SDS011;25592;49.986;11.618;2023-06-14T09:01:18;3.40;;;1.55;;
39924;SDS011;25592;49.986;11.618;2023-06-14T09:04:06;6.80;;;1.92;;
39924;SDS011;25592;49.986;11.618;2023-06-14T09:06:52;3.65;;;2.15;;
39924;SDS011;25592;49.986;11.618;2023-06-14T09:09:40;4.00;;;1.70;;
39924;SDS011;25592;49.986;11.618;2023-06-14T09:12:46;4.68;;;2.08;;
39924;SDS011;25592;49.986;11.618;2023-06-14T09:15:32;3.67;;;1.60;;
39924;SDS011;25592;49.986;11.618;2023-06-14T09:18:18;6.93;;;2.35;;
39924;SDS011;25592;49.986;11.618;2023-06-14T09:21:05;5.53;;;2.00;;
39924;SDS011;25592;49.986;11.618;2023-06-14T09:23:55;5.35;;;1.85;;
39924;SDS011;25592;49.986;11.618;2023-06-14T09:26:40;6.03;;;1.80;;
39924;SDS011;25592;49.986;11.618;2023-06-14T09:29:26;3.10;;;1.83;;
39924;SDS011;25592;49.986;11.618;2023-06-14T09:32:12;5.55;;;2.03;;
39924;SDS011;25592;49.986;11.618;2023-06-14T09:34:58;4.72;;;2.00;;
39924;SDS011;25592;49.986;11.618;2023-06-14T09:37:44;3.17;;;1.63;;
39924;SDS011;25592;49.986;11.618;2023-06-14T09:40:33;4.88;;;1.80;;
39924;SDS011;25592;49.986;11.618;2023-06-14T09:43:19;4.18;;;1.90;;
39924;SDS011;25592;49.986;11.618;2023-06-14T09:46:06;4.40;;;2.03;;
39924;SDS011;25592;49.986;11.618;2023-06-14T09:48:54;5.60;;;1.90;;
39924;SDS011;25592;49.986;11.618;2023-06-14T09:51:42;3.03;;;1.70;;
39924;SDS011;25592;49.986;11.618;2023-06-14T09:54:28;3.35;;;1.83;;
39924;SDS011;25592;49.986;11.618;2023-06-14T09:57:16;4.25;;;1.52;;
39924;SDS011;25592;49.986;11.618;2023-06-14T10:00:05;4.25;;;1.60;;
39924;SDS011;25592;49.986;11.618;2023-06-14T10:02:56;3.53;;;1.75;;
39924;SDS011;25592;49.986;11.618;2023-06-14T10:05:48;3.20;;;1.90;;
39924;SDS011;25592;49.986;11.618;2023-06-14T10:08:35;3.33;;;1.70;;
39924;SDS011;25592;49.986;11.618;2023-06-14T10:11:22;5.53;;;1.90;;
39924;SDS011;25592;49.986;11.618;2023-06-14T10:14:10;2.70;;;1.42;;
39924;SDS011;25592;49.986;11.618;2023-06-14T10:17:04;2.88;;;1.83;;
39924;SDS011;25592;49.986;11.618;2023-06-14T10:20:02;2.97;;;1.83;;
39924;SDS011;25592;49.986;11.618;2023-06-14T10:23:23;7.43;;;1.88;;
39924;SDS011;25592;49.986;11.618;2023-06-14T10:26:17;5.95;;;1.60;;
39924;SDS011;25592;49.986;11.618;2023-06-14T10:29:08;5.28;;;1.70;;
39924;SDS011;25592;49.986;11.618;2023-06-14T10:31:58;3.90;;;1.67;;
39924;SDS011;25592;49.986;11.618;2023-06-14T10:34:44;7.13;;;1.70;;
39924;SDS011;25592;49.986;11.618;2023-06-14T10:37:29;3.33;;;1.60;;
39924;SDS011;25592;49.986;11.618;2023-06-14T10:40:30;4.07;;;1.63;;
39924;SDS011;25592;49.986;11.618;2023-06-14T10:43:22;5.90;;;1.98;;
39924;SDS011;25592;49.986;11.618;2023-06-14T10:46:15;3.05;;;1.50;;
39924;SDS011;25592;49.986;11.618;2023-06-14T10:49:02;2.55;;;1.45;;
39924;SDS011;25592;49.986;11.618;2023-06-14T10:51:51;2.65;;;1.58;;
39924;SDS011;25592;49.986;11.618;2023-06-14T10:54:37;4.47;;;1.58;;
39924;SDS011;25592;49.986;11.618;2023-06-14T10:57:23;4.55;;;1.85;;
39924;SDS011;25592;49.986;11.618;2023-06-14T11:00:09;4.40;;;1.88;;
39924;SDS011;25592;49.986;11.618;2023-06-14T11:06:16;2.90;;;1.50;;
39924;SDS011;25592;49.986;11.618;2023-06-14T11:12:04;3.65;;;1.80;;
39924;SDS011;25592;49.986;11.618;2023-06-14T11:14:54;3.70;;;1.80;;
39924;SDS011;25592;49.986;11.618;2023-06-14T11:17:49;3.17;;;1.45;;
39924;SDS011;25592;49.986;11.618;2023-06-14T11:20:39;2.90;;;1.80;;
39924;SDS011;25592;49.986;11.618;2023-06-14T11:23:25;4.43;;;1.63;;
39924;SDS011;25592;49.986;11.618;2023-06-14T11:26:10;3.00;;;1.60;;
39924;SDS011;25592;49.986;11.618;2023-06-14T11:28:56;3.13;;;1.73;;
39924;SDS011;25592;49.986;11.618;2023-06-14T11:31:46;2.60;;;1.65;;
39924;SDS011;25592;49.986;11.618;2023-06-14T11:34:31;4.47;;;1.90;;
39924;SDS011;25592;49.986;11.618;2023-06-14T11:37:17;3.30;;;1.77;;
39924;SDS011;25592;49.986;11.618;2023-06-14T11:40:03;3.50;;;1.80;;
39924;SDS011;25592;49.986;11.618;2023-06-14T11:42:59;5.43;;;1.70;;
39924;SDS011;25592;49.986;11.618;2023-06-14T11:45:48;2.75;;;1.50;;
39924;SDS011;25592;49.986;11.618;2023-06-14T11:48:50;3.45;;;1.60;;
39924;SDS011;25592;49.986;11.618;2023-06-14T11:51:36;3.53;;;1.40;;
39924;SDS011;25592;49.986;11.618;2023-06-14T11:54:22;5.35;;;1.80;;
39924;SDS011;25592;49.986;11.618;2023-06-14T11:57:07;3.60;;;1.80;;
39924;SDS011;25592;49.986;11.618;2023-06-14T11:59:54;3.20;;;1.92;;
39924;SDS011;25592;49.986;11.618;2023-06-14T12:02:39;3.25;;;2.08;;
39924;SDS011;25592;49.986;11.618;2023-06-14T12:05:25;3.28;;;2.20;;
39924;SDS011;25592;49.986;11.618;2023-06-14T12:08:11;7.72;;;2.50;;
39924;SDS011;25592;49.986;11.618;2023-06-14T12:11:02;5.63;;;2.40;;
39924;SDS011;25592;49.986;11.618;2023-06-14T12:13:48;4.82;;;2.28;;
39924;SDS011;25592;49.986;11.618;2023-06-14T12:16:34;3.85;;;2.22;;
39924;SDS011;25592;49.986;11.618;2023-06-14T12:19:25;4.45;;;2.28;;
39924;SDS011;25592;49.986;11.618;2023-06-14T12:22:11;3.55;;;2.10;;
39924;SDS011;25592;49.986;11.618;2023-06-14T12:25:00;3.47;;;1.90;;
39924;SDS011;25592;49.986;11.618;2023-06-14T12:27:46;4.20;;;2.35;;
39924;SDS011;25592;49.986;11.618;2023-06-14T12:30:32;4.32;;;2.08;;
39924;SDS011;25592;49.986;11.618;2023-06-14T12:33:18;6.03;;;2.50;;
39924;SDS011;25592;49.986;11.618;2023-06-14T12:36:04;5.85;;;2.28;;
39924;SDS011;25592;49.986;11.618;2023-06-14T12:38:50;5.82;;;2.15;;
39924;SDS011;25592;49.986;11.618;2023-06-14T12:41:38;4.85;;;2.35;;
39924;SDS011;25592;49.986;11.618;2023-06-14T12:44:26;5.55;;;2.15;;
39924;SDS011;25592;49.986;11.618;2023-06-14T12:47:12;5.03;;;2.22;;
39924;SDS011;25592;49.986;11.618;2023-06-14T12:49:57;4.32;;;2.03;;
39924;SDS011;25592;49.986;11.618;2023-06-14T12:52:43;9.05;;;2.33;;
39924;SDS011;25592;49.986;11.618;2023-06-14T12:55:28;4.97;;;2.13;;
39924;SDS011;25592;49.986;11.618;2023-06-14T12:58:14;3.80;;;2.08;;
39924;SDS011;25592;49.986;11.618;2023-06-14T13:01:01;3.30;;;1.90;;
39924;SDS011;25592;49.986;11.618;2023-06-14T13:03:47;3.88;;;2.00;;
39924;SDS011;25592;49.986;11.618;2023-06-14T13:06:33;4.75;;;2.17;;
39924;SDS011;25592;49.986;11.618;2023-06-14T13:09:18;5.90;;;1.95;;
39924;SDS011;25592;49.986;11.618;2023-06-14T13:12:03;8.13;;;2.65;;
39924;SDS011;25592;49.986;11.618;2023-06-14T13:14:49;10.25;;;2.72;;
39924;SDS011;25592;49.986;11.618;2023-06-14T13:17:35;5.93;;;2.58;;
39924;SDS011;25592;49.986;11.618;2023-06-14T13:20:25;4.18;;;2.33;;
39924;SDS011;25592;49.986;11.618;2023-06-14T13:23:10;8.60;;;2.40;;
39924;SDS011;25592;49.986;11.618;2023-06-14T13:25:56;3.13;;;2.03;;
39924;SDS011;25592;49.986;11.618;2023-06-14T13:28:41;4.60;;;2.42;;
39924;SDS011;25592;49.986;11.618;2023-06-14T13:31:27;6.40;;;2.22;;
39924;SDS011;25592;49.986;11.618;2023-06-14T13:34:12;3.33;;;2.13;;
39924;SDS011;25592;49.986;11.618;2023-06-14T13:36:57;4.38;;;2.67;;
39924;SDS011;25592;49.986;11.618;2023-06-14T13:39:44;4.00;;;2.58;;
39924;SDS011;25592;49.986;11.618;2023-06-14T13:42:29;3.60;;;2.15;;
39924;SDS011;25592;49.986;11.618;2023-06-14T13:45:16;6.25;;;2.30;;
39924;SDS011;25592;49.986;11.618;2023-06-14T13:48:02;6.13;;;1.95;;
39924;SDS011;25592;49.986;11.618;2023-06-14T13:50:47;6.10;;;2.42;;
39924;SDS011;25592;49.986;11.618;2023-06-14T13:53:33;3.30;;;2.30;;
39924;SDS011;25592;49.986;11.618;2023-06-14T13:56:18;3.67;;;2.25;;
39924;SDS011;25592;49.986;11.618;2023-06-14T13:59:03;2.75;;;1.85;;
39924;SDS011;25592;49.986;11.618;2023-06-14T14:01:49;3.88;;;2.28;;
39924;SDS011;25592;49.986;11.618;2023-06-14T14:04:35;3.90;;;2.20;;
39924;SDS011;25592;49.986;11.618;2023-06-14T14:07:21;6.57;;;2.67;;
39924;SDS011;25592;49.986;11.618;2023-06-14T14:10:07;4.47;;;2.33;;
39924;SDS011;25592;49.986;11.618;2023-06-14T14:12:53;3.50;;;2.15;;
39924;SDS011;25592;49.986;11.618;2023-06-14T14:15:39;3.60;;;1.90;;
39924;SDS011;25592;49.986;11.618;2023-06-14T14:18:25;6.13;;;2.80;;
39924;SDS011;25592;49.986;11.618;2023-06-14T14:21:12;4.65;;;2.80;;
39924;SDS011;25592;49.986;11.618;2023-06-14T14:23:58;7.47;;;2.30;;
39924;SDS011;25592;49.986;11.618;2023-06-14T14:26:43;4.07;;;2.28;;
39924;SDS011;25592;49.986;11.618;2023-06-14T14:29:32;4.88;;;2.40;;
39924;SDS011;25592;49.986;11.618;2023-06-14T14:32:17;4.28;;;2.13;;
39924;SDS011;25592;49.986;11.618;2023-06-14T14:35:03;8.73;;;2.35;;
39924;SDS011;25592;49.986;11.618;2023-06-14T14:37:49;4.47;;;2.10;;
39924;SDS011;25592;49.986;11.618;2023-06-14T14:40:35;5.88;;;2.72;;
39924;SDS011;25592;49.986;11.618;2023-06-14T14:43:21;5.95;;;2.38;;
39924;SDS011;25592;49.986;11.618;2023-06-14T14:46:06;3.65;;;2.30;;
39924;SDS011;25592;49.986;11.618;2023-06-14T14:48:52;4.80;;;1.90;;
39924;SDS011;25592;49.986;11.618;2023-06-14T14:51:37;9.00;;;2.65;;
39924;SDS011;25592;49.986;11.618;2023-06-14T14:54:23;6.15;;;2.60;;
39924;SDS011;25592;49.986;11.618;2023-06-14T14:57:09;3.40;;;1.92;;
39924;SDS011;25592;49.986;11.618;2023-06-14T14:59:55;5.93;;;2.22;;
39924;SDS011;25592;49.986;11.618;2023-06-14T15:02:40;4.35;;;2.25;;
39924;SDS011;25592;49.986;11.618;2023-06-14T15:05:26;4.90;;;2.47;;
39924;SDS011;25592;49.986;11.618;2023-06-14T15:08:12;6.22;;;2.25;;
39924;SDS011;25592;49.986;11.618;2023-06-14T15:10:57;4.95;;;2.47;;
39924;SDS011;25592;49.986;11.618;2023-06-14T15:13:43;5.20;;;2.42;;
39924;SDS011;25592;49.986;11.618;2023-06-14T15:16:28;6.70;;;2.45;;
39924;SDS011;25592;49.986;11.618;2023-06-14T15:19:14;4.95;;;2.28;;
39924;SDS011;25592;49.986;11.618;2023-06-14T15:21:59;5.55;;;2.72;;
39924;SDS011;25592;49.986;11.618;2023-06-14T15:24:44;5.25;;;2.63;;
39924;SDS011;25592;49.986;11.618;2023-06-14T15:27:33;3.00;;;2.05;;
39924;SDS011;25592;49.986;11.618;2023-06-14T15:30:19;5.60;;;2.75;;
39924;SDS011;25592;49.986;11.618;2023-06-14T15:33:05;4.25;;;2.50;;
39924;SDS011;25592;49.986;11.618;2023-06-14T15:35:50;5.50;;;2.78;;
39924;SDS011;25592;49.986;11.618;2023-06-14T15:38:36;4.05;;;2.50;;
39924;SDS011;25592;49.986;11.618;2023-06-14T15:41:21;5.50;;;2.72;;
39924;SDS011;25592;49.986;11.618;2023-06-14T15:44:07;3.78;;;2.50;;
39924;SDS011;25592;49.986;11.618;2023-06-14T15:46:53;7.47;;;2.90;;
39924;SDS011;25592;49.986;11.618;2023-06-14T15:49:38;5.65;;;2.25;;
39924;SDS011;25592;49.986;11.618;2023-06-14T15:52:24;5.53;;;2.60;;
39924;SDS011;25592;49.986;11.618;2023-06-14T15:55:10;5.68;;;2.50;;
39924;SDS011;25592;49.986;11.618;2023-06-14T15:57:55;4.03;;;2.47;;
39924;SDS011;25592;49.986;11.618;2023-06-14T16:00:41;5.15;;;3.22;;
39924;SDS011;25592;49.986;11.618;2023-06-14T16:03:26;4.88;;;2.70;;
39924;SDS011;25592;49.986;11.618;2023-06-14T16:06:12;4.55;;;2.63;;
39924;SDS011;25592;49.986;11.618;2023-06-14T16:08:58;7.43;;;2.63;;
39924;SDS011;25592;49.986;11.618;2023-06-14T16:11:43;4.05;;;2.50;;
39924;SDS011;25592;49.986;11.618;2023-06-14T16:14:28;5.65;;;2.35;;
39924;SDS011;25592;49.986;11.618;2023-06-14T16:17:14;5.15;;;2.50;;
39924;SDS011;25592;49.986;11.618;2023-06-14T16:19:59;6.57;;;2.75;;
39924;SDS011;25592;49.986;11.618;2023-06-14T16:22:45;5.03;;;2.40;;
39924;SDS011;25592;49.986;11.618;2023-06-14T16:25:30;6.40;;;2.50;;
39924;SDS011;25592;49.986;11.618;2023-06-14T16:28:15;6.32;;;2.40;;
39924;SDS011;25592;49.986;11.618;2023-06-14T16:31:01;4.38;;;2.60;;
39924;SDS011;25592;49.986;11.618;2023-06-14T16:33:46;4.78;;;2.22;;
39924;SDS011;25592;49.986;11.618;2023-06-14T16:36:32;4.95;;;2.97;;
39924;SDS011;25592;49.986;11.618;2023-06-14T16:39:17;3.70;;;2.30;;
39924;SDS011;25592;49.986;11.618;2023-06-14T16:42:03;6.82;;;3.75;;